Terminal Aerodrome Forecast
Issued by NWS Albany, NY

Home | Current Version | Previous Version | Text Only | Print | Product List | Glossary On
Versions: 1 2 3 4 5 6 7 8 9 10 11 12 13 14 15 16 17 18 19 20 21
000
FTUS41 KALY 251722
TAFGFL
TAF
KGFL 251722Z 2518/2618 18007KT P6SM SCT090 BKN120
     FM260000 19006KT P6SM VCSH BKN060 OVC120
     FM261200 21009KT P6SM SCT060 BKN150=

USA.gov is the U.S. government's official web portal to all federal, state and local government web resources and services.